sensor_id;sensor_type;location;lat;lon;timestamp;temperature;humidity
15156;DHT22;7678;50.058;8.306;2023-03-01T00:01:19;0.10;99.90
15156;DHT22;7678;50.058;8.306;2023-03-01T00:03:48;0.00;99.90
15156;DHT22;7678;50.058;8.306;2023-03-01T00:06:18;0.00;99.90
15156;DHT22;7678;50.058;8.306;2023-03-01T00:08:49;0.00;99.90
15156;DHT22;7678;50.058;8.306;2023-03-01T00:11:19;-0.10;99.90
15156;DHT22;7678;50.058;8.306;2023-03-01T00:13:50;0.00;99.90
15156;DHT22;7678;50.058;8.306;2023-03-01T00:16:20;0.00;99.90
15156;DHT22;7678;50.058;8.306;2023-03-01T00:18:49;0.00;99.90
15156;DHT22;7678;50.058;8.306;2023-03-01T00:21:19;-0.10;99.90
15156;DHT22;7678;50.058;8.306;2023-03-01T00:23:48;0.00;99.90
15156;DHT22;7678;50.058;8.306;2023-03-01T00:26:18;0.00;99.90
15156;DHT22;7678;50.058;8.306;2023-03-01T00:28:46;-0.10;99.90
15156;DHT22;7678;50.058;8.306;2023-03-01T00:31:16;0.00;99.90
15156;DHT22;7678;50.058;8.306;2023-03-01T00:33:45;0.00;99.90
15156;DHT22;7678;50.058;8.306;2023-03-01T00:36:14;-0.10;99.90
15156;DHT22;7678;50.058;8.306;2023-03-01T00:38:45;0.00;99.90
15156;DHT22;7678;50.058;8.306;2023-03-01T00:41:15;0.00;99.90
15156;DHT22;7678;50.058;8.306;2023-03-01T00:43:44;0.00;99.90
15156;DHT22;7678;50.058;8.306;2023-03-01T00:46:16;0.00;99.90
15156;DHT22;7678;50.058;8.306;2023-03-01T00:48:45;0.00;99.90
15156;DHT22;7678;50.058;8.306;2023-03-01T00:51:15;0.00;99.90
15156;DHT22;7678;50.058;8.306;2023-03-01T00:53:45;0.00;99.90
15156;DHT22;7678;50.058;8.306;2023-03-01T00:56:14;-0.10;99.90
15156;DHT22;7678;50.058;8.306;2023-03-01T00:58:42;-0.20;99.90
15156;DHT22;7678;50.058;8.306;2023-03-01T01:01:12;-0.20;99.90
15156;DHT22;7678;50.058;8.306;2023-03-01T01:03:46;-0.20;99.90
15156;DHT22;7678;50.058;8.306;2023-03-01T01:06:16;-0.20;99.90
15156;DHT22;7678;50.058;8.306;2023-03-01T01:08:47;-0.40;99.90
15156;DHT22;7678;50.058;8.306;2023-03-01T01:11:15;-0.40;99.90
15156;DHT22;7678;50.058;8.306;2023-03-01T01:13:45;-0.40;99.90
15156;DHT22;7678;50.058;8.306;2023-03-01T01:16:14;-0.40;99.90
15156;DHT22;7678;50.058;8.306;2023-03-01T01:18:43;-0.50;99.90
15156;DHT22;7678;50.058;8.306;2023-03-01T01:21:12;-0.40;99.90
15156;DHT22;7678;50.058;8.306;2023-03-01T01:23:42;-0.40;99.90
15156;DHT22;7678;50.058;8.306;2023-03-01T01:26:13;-0.40;99.90
15156;DHT22;7678;50.058;8.306;2023-03-01T01:28:42;-0.40;99.90
15156;DHT22;7678;50.058;8.306;2023-03-01T01:31:10;-0.40;99.90
15156;DHT22;7678;50.058;8.306;2023-03-01T01:33:39;-0.30;99.90
15156;DHT22;7678;50.058;8.306;2023-03-01T01:36:08;-0.20;99.90
15156;DHT22;7678;50.058;8.306;2023-03-01T01:38:37;-0.30;99.90
15156;DHT22;7678;50.058;8.306;2023-03-01T01:41:05;-0.30;99.90
15156;DHT22;7678;50.058;8.306;2023-03-01T01:43:37;-0.30;99.90
15156;DHT22;7678;50.058;8.306;2023-03-01T01:46:14;-0.30;99.90
15156;DHT22;7678;50.058;8.306;2023-03-01T01:48:47;-0.30;99.90
15156;DHT22;7678;50.058;8.306;2023-03-01T01:51:19;-0.30;99.90
15156;DHT22;7678;50.058;8.306;2023-03-01T01:53:54;-0.40;99.90
15156;DHT22;7678;50.058;8.306;2023-03-01T01:56:24;-0.40;99.90
15156;DHT22;7678;50.058;8.306;2023-03-01T01:58:56;-0.40;99.90
15156;DHT22;7678;50.058;8.306;2023-03-01T02:01:25;-0.30;99.90
15156;DHT22;7678;50.058;8.306;2023-03-01T02:03:53;-0.30;99.90
15156;DHT22;7678;50.058;8.306;2023-03-01T02:06:26;-0.30;99.90
15156;DHT22;7678;50.058;8.306;2023-03-01T02:09:00;-0.30;99.90
15156;DHT22;7678;50.058;8.306;2023-03-01T02:11:31;-0.20;99.90
15156;DHT22;7678;50.058;8.306;2023-03-01T02:14:00;-0.20;99.90
15156;DHT22;7678;50.058;8.306;2023-03-01T02:16:28;-0.10;99.90
15156;DHT22;7678;50.058;8.306;2023-03-01T02:18:58;0.00;99.90
15156;DHT22;7678;50.058;8.306;2023-03-01T02:21:37;0.10;99.90
15156;DHT22;7678;50.058;8.306;2023-03-01T02:24:14;0.20;99.90
15156;DHT22;7678;50.058;8.306;2023-03-01T02:26:56;0.20;99.90
15156;DHT22;7678;50.058;8.306;2023-03-01T02:30:02;0.00;99.90
15156;DHT22;7678;50.058;8.306;2023-03-01T02:32:31;-0.10;99.90
15156;DHT22;7678;50.058;8.306;2023-03-01T02:35:00;-0.10;99.90
15156;DHT22;7678;50.058;8.306;2023-03-01T02:37:28;-0.10;99.90
15156;DHT22;7678;50.058;8.306;2023-03-01T02:39:59;-0.10;99.90
15156;DHT22;7678;50.058;8.306;2023-03-01T02:42:31;-0.10;99.90
15156;DHT22;7678;50.058;8.306;2023-03-01T02:45:03;-0.20;99.90
15156;DHT22;7678;50.058;8.306;2023-03-01T02:47:32;-0.10;99.90
15156;DHT22;7678;50.058;8.306;2023-03-01T02:50:00;-0.10;99.90
15156;DHT22;7678;50.058;8.306;2023-03-01T02:52:37;-0.10;99.90
15156;DHT22;7678;50.058;8.306;2023-03-01T02:55:13;-0.20;99.90
15156;DHT22;7678;50.058;8.306;2023-03-01T02:57:47;-0.30;99.90
15156;DHT22;7678;50.058;8.306;2023-03-01T03:00:23;-0.30;99.90
15156;DHT22;7678;50.058;8.306;2023-03-01T03:02:53;-0.30;99.90
15156;DHT22;7678;50.058;8.306;2023-03-01T03:05:25;-0.30;99.90
15156;DHT22;7678;50.058;8.306;2023-03-01T03:07:54;-0.30;99.90
15156;DHT22;7678;50.058;8.306;2023-03-01T03:10:24;-0.30;99.90
15156;DHT22;7678;50.058;8.306;2023-03-01T03:12:55;-0.40;99.90
15156;DHT22;7678;50.058;8.306;2023-03-01T03:15:25;-0.40;99.90
15156;DHT22;7678;50.058;8.306;2023-03-01T03:17:54;-0.40;99.90
15156;DHT22;7678;50.058;8.306;2023-03-01T03:20:24;-0.40;99.90
15156;DHT22;7678;50.058;8.306;2023-03-01T03:22:54;-0.50;99.90
15156;DHT22;7678;50.058;8.306;2023-03-01T03:25:23;-0.30;99.90
15156;DHT22;7678;50.058;8.306;2023-03-01T03:27:53;-0.30;99.90
15156;DHT22;7678;50.058;8.306;2023-03-01T03:30:27;-0.20;99.90
15156;DHT22;7678;50.058;8.306;2023-03-01T03:32:57;-0.20;99.90
15156;DHT22;7678;50.058;8.306;2023-03-01T03:35:28;-0.30;99.90
15156;DHT22;7678;50.058;8.306;2023-03-01T03:37:57;-0.40;99.90
15156;DHT22;7678;50.058;8.306;2023-03-01T03:40:39;-0.50;99.90
15156;DHT22;7678;50.058;8.306;2023-03-01T03:43:09;-0.60;99.90
15156;DHT22;7678;50.058;8.306;2023-03-01T03:45:40;-0.60;99.90
15156;DHT22;7678;50.058;8.306;2023-03-01T03:48:09;-0.50;99.90
15156;DHT22;7678;50.058;8.306;2023-03-01T03:50:38;-0.50;99.90
15156;DHT22;7678;50.058;8.306;2023-03-01T03:53:08;-0.50;99.90
15156;DHT22;7678;50.058;8.306;2023-03-01T03:55:37;-0.60;99.90
15156;DHT22;7678;50.058;8.306;2023-03-01T03:58:07;-0.60;99.90
15156;DHT22;7678;50.058;8.306;2023-03-01T04:00:38;-0.60;99.90
15156;DHT22;7678;50.058;8.306;2023-03-01T04:03:08;-0.60;99.90
15156;DHT22;7678;50.058;8.306;2023-03-01T04:05:38;-0.70;99.90
15156;DHT22;7678;50.058;8.306;2023-03-01T04:08:08;-0.70;99.90
15156;DHT22;7678;50.058;8.306;2023-03-01T04:10:38;-0.80;99.90
15156;DHT22;7678;50.058;8.306;2023-03-01T04:13:08;-0.80;99.90
15156;DHT22;7678;50.058;8.306;2023-03-01T04:15:37;-0.80;99.90
15156;DHT22;7678;50.058;8.306;2023-03-01T04:18:06;-0.70;99.90
15156;DHT22;7678;50.058;8.306;2023-03-01T04:20:36;-0.70;99.90
15156;DHT22;7678;50.058;8.306;2023-03-01T04:23:06;-0.60;99.90
15156;DHT22;7678;50.058;8.306;2023-03-01T04:25:45;-0.60;99.90
15156;DHT22;7678;50.058;8.306;2023-03-01T04:28:16;-0.60;99.90
15156;DHT22;7678;50.058;8.306;2023-03-01T04:30:44;-0.70;99.90
15156;DHT22;7678;50.058;8.306;2023-03-01T04:33:12;-0.50;99.90
15156;DHT22;7678;50.058;8.306;2023-03-01T04:35:42;-0.60;99.90
15156;DHT22;7678;50.058;8.306;2023-03-01T04:38:10;-0.60;99.90
15156;DHT22;7678;50.058;8.306;2023-03-01T04:40:39;-0.60;99.90
15156;DHT22;7678;50.058;8.306;2023-03-01T04:43:09;-0.70;99.90
15156;DHT22;7678;50.058;8.306;2023-03-01T04:45:38;-0.70;99.90
15156;DHT22;7678;50.058;8.306;2023-03-01T04:48:06;-0.80;99.90
15156;DHT22;7678;50.058;8.306;2023-03-01T04:50:35;-0.80;99.90
15156;DHT22;7678;50.058;8.306;2023-03-01T04:53:04;-0.80;99.90
15156;DHT22;7678;50.058;8.306;2023-03-01T04:55:33;-0.70;99.90
15156;DHT22;7678;50.058;8.306;2023-03-01T04:58:01;-0.80;99.90
15156;DHT22;7678;50.058;8.306;2023-03-01T05:00:29;-0.80;99.90
15156;DHT22;7678;50.058;8.306;2023-03-01T05:03:00;-0.70;99.90
15156;DHT22;7678;50.058;8.306;2023-03-01T05:05:31;-0.80;99.90
15156;DHT22;7678;50.058;8.306;2023-03-01T05:08:02;-0.90;99.90
15156;DHT22;7678;50.058;8.306;2023-03-01T05:10:34;-1.00;99.90
15156;DHT22;7678;50.058;8.306;2023-03-01T05:13:03;-1.10;99.90
15156;DHT22;7678;50.058;8.306;2023-03-01T05:15:33;-1.10;99.90
15156;DHT22;7678;50.058;8.306;2023-03-01T05:18:03;-1.20;99.90
15156;DHT22;7678;50.058;8.306;2023-03-01T05:20:33;-1.10;99.90
15156;DHT22;7678;50.058;8.306;2023-03-01T05:23:03;-1.10;99.90
15156;DHT22;7678;50.058;8.306;2023-03-01T05:25:33;-1.00;99.90
15156;DHT22;7678;50.058;8.306;2023-03-01T05:28:07;-1.00;99.90
15156;DHT22;7678;50.058;8.306;2023-03-01T05:30:38;-1.00;99.90
15156;DHT22;7678;50.058;8.306;2023-03-01T05:33:07;-1.00;99.90
15156;DHT22;7678;50.058;8.306;2023-03-01T05:35:41;-1.00;99.90
15156;DHT22;7678;50.058;8.306;2023-03-01T05:38:09;-1.00;99.90
15156;DHT22;7678;50.058;8.306;2023-03-01T05:40:41;-1.00;99.90
15156;DHT22;7678;50.058;8.306;2023-03-01T05:43:11;-0.90;99.90
15156;DHT22;7678;50.058;8.306;2023-03-01T05:45:41;-0.80;99.90
15156;DHT22;7678;50.058;8.306;2023-03-01T05:48:10;-0.80;99.90
15156;DHT22;7678;50.058;8.306;2023-03-01T05:50:39;-0.70;99.90
15156;DHT22;7678;50.058;8.306;2023-03-01T05:53:11;-0.50;99.90
15156;DHT22;7678;50.058;8.306;2023-03-01T05:55:41;-0.40;99.90
15156;DHT22;7678;50.058;8.306;2023-03-01T05:58:12;-0.30;99.90
15156;DHT22;7678;50.058;8.306;2023-03-01T06:00:42;-0.10;99.90
15156;DHT22;7678;50.058;8.306;2023-03-01T06:03:11;0.00;99.90
15156;DHT22;7678;50.058;8.306;2023-03-01T06:05:40;0.10;99.90
15156;DHT22;7678;50.058;8.306;2023-03-01T06:08:09;0.10;99.90
15156;DHT22;7678;50.058;8.306;2023-03-01T06:10:38;0.20;99.90
15156;DHT22;7678;50.058;8.306;2023-03-01T06:13:08;0.20;99.90
15156;DHT22;7678;50.058;8.306;2023-03-01T06:15:37;0.20;99.90
15156;DHT22;7678;50.058;8.306;2023-03-01T06:18:05;0.10;99.90
15156;DHT22;7678;50.058;8.306;2023-03-01T06:20:33;0.30;99.00
15156;DHT22;7678;50.058;8.306;2023-03-01T06:23:02;0.30;98.20
15156;DHT22;7678;50.058;8.306;2023-03-01T06:25:30;0.30;99.00
15156;DHT22;7678;50.058;8.306;2023-03-01T06:27:58;0.40;97.70
15156;DHT22;7678;50.058;8.306;2023-03-01T06:30:28;0.60;96.60
15156;DHT22;7678;50.058;8.306;2023-03-01T06:32:57;0.60;96.00
15156;DHT22;7678;50.058;8.306;2023-03-01T06:35:28;0.70;95.50
15156;DHT22;7678;50.058;8.306;2023-03-01T06:37:58;0.80;94.60
15156;DHT22;7678;50.058;8.306;2023-03-01T06:40:26;0.70;95.60
15156;DHT22;7678;50.058;8.306;2023-03-01T06:42:55;0.60;95.70
15156;DHT22;7678;50.058;8.306;2023-03-01T06:45:23;0.60;96.30
15156;DHT22;7678;50.058;8.306;2023-03-01T06:48:01;0.60;96.80
15156;DHT22;7678;50.058;8.306;2023-03-01T06:50:30;0.70;96.10
15156;DHT22;7678;50.058;8.306;2023-03-01T06:52:58;0.70;94.90
15156;DHT22;7678;50.058;8.306;2023-03-01T06:55:26;0.60;96.90
15156;DHT22;7678;50.058;8.306;2023-03-01T06:57:55;0.60;96.30
15156;DHT22;7678;50.058;8.306;2023-03-01T07:00:24;0.70;94.80
15156;DHT22;7678;50.058;8.306;2023-03-01T07:02:54;0.70;95.80
15156;DHT22;7678;50.058;8.306;2023-03-01T07:05:22;0.60;96.20
15156;DHT22;7678;50.058;8.306;2023-03-01T07:07:50;0.60;96.70
15156;DHT22;7678;50.058;8.306;2023-03-01T07:10:19;0.60;96.20
15156;DHT22;7678;50.058;8.306;2023-03-01T07:12:47;0.80;94.60
15156;DHT22;7678;50.058;8.306;2023-03-01T07:15:15;0.80;94.60
15156;DHT22;7678;50.058;8.306;2023-03-01T07:17:43;0.80;95.00
15156;DHT22;7678;50.058;8.306;2023-03-01T07:20:16;0.80;95.40
15156;DHT22;7678;50.058;8.306;2023-03-01T07:22:44;0.80;95.20
15156;DHT22;7678;50.058;8.306;2023-03-01T07:25:12;1.00;94.00
15156;DHT22;7678;50.058;8.306;2023-03-01T07:27:40;1.00;94.00
15156;DHT22;7678;50.058;8.306;2023-03-01T07:30:09;1.00;93.30
15156;DHT22;7678;50.058;8.306;2023-03-01T07:32:37;1.10;91.80
15156;DHT22;7678;50.058;8.306;2023-03-01T07:35:06;1.10;91.30
15156;DHT22;7678;50.058;8.306;2023-03-01T07:37:36;1.20;92.10
15156;DHT22;7678;50.058;8.306;2023-03-01T07:40:05;1.30;90.70
15156;DHT22;7678;50.058;8.306;2023-03-01T07:42:33;1.40;91.30
15156;DHT22;7678;50.058;8.306;2023-03-01T07:45:01;1.40;89.40
15156;DHT22;7678;50.058;8.306;2023-03-01T07:47:29;1.50;88.20
15156;DHT22;7678;50.058;8.306;2023-03-01T07:49:57;1.50;89.60
15156;DHT22;7678;50.058;8.306;2023-03-01T07:52:25;1.60;87.50
15156;DHT22;7678;50.058;8.306;2023-03-01T07:54:55;1.60;88.30
15156;DHT22;7678;50.058;8.306;2023-03-01T07:57:23;1.60;85.10
15156;DHT22;7678;50.058;8.306;2023-03-01T07:59:51;1.60;89.20
15156;DHT22;7678;50.058;8.306;2023-03-01T08:02:19;1.60;85.80
15156;DHT22;7678;50.058;8.306;2023-03-01T08:04:47;1.70;86.10
15156;DHT22;7678;50.058;8.306;2023-03-01T08:07:15;1.70;84.90
15156;DHT22;7678;50.058;8.306;2023-03-01T08:09:45;1.80;86.70
15156;DHT22;7678;50.058;8.306;2023-03-01T08:12:15;1.90;83.40
15156;DHT22;7678;50.058;8.306;2023-03-01T08:14:43;1.90;84.20
15156;DHT22;7678;50.058;8.306;2023-03-01T08:17:13;1.90;81.60
15156;DHT22;7678;50.058;8.306;2023-03-01T08:19:42;1.90;81.50
15156;DHT22;7678;50.058;8.306;2023-03-01T08:22:11;2.00;80.80
15156;DHT22;7678;50.058;8.306;2023-03-01T08:24:39;2.10;80.00
15156;DHT22;7678;50.058;8.306;2023-03-01T08:27:07;2.10;78.70
15156;DHT22;7678;50.058;8.306;2023-03-01T08:29:36;2.10;80.60
15156;DHT22;7678;50.058;8.306;2023-03-01T08:32:04;2.10;80.70
15156;DHT22;7678;50.058;8.306;2023-03-01T08:34:33;2.10;79.50
15156;DHT22;7678;50.058;8.306;2023-03-01T08:37:03;2.20;77.80
15156;DHT22;7678;50.058;8.306;2023-03-01T08:39:32;2.20;76.60
15156;DHT22;7678;50.058;8.306;2023-03-01T08:42:00;2.20;76.10
15156;DHT22;7678;50.058;8.306;2023-03-01T08:44:28;2.20;76.10
15156;DHT22;7678;50.058;8.306;2023-03-01T08:46:58;2.20;78.30
15156;DHT22;7678;50.058;8.306;2023-03-01T08:49:26;2.40;77.30
15156;DHT22;7678;50.058;8.306;2023-03-01T08:51:54;2.40;77.60
15156;DHT22;7678;50.058;8.306;2023-03-01T08:54:22;2.50;74.50
15156;DHT22;7678;50.058;8.306;2023-03-01T08:56:49;2.50;73.00
15156;DHT22;7678;50.058;8.306;2023-03-01T08:59:19;2.60;71.50
15156;DHT22;7678;50.058;8.306;2023-03-01T09:01:47;2.60;71.90
15156;DHT22;7678;50.058;8.306;2023-03-01T09:04:16;2.70;72.40
15156;DHT22;7678;50.058;8.306;2023-03-01T09:06:45;2.80;70.90
15156;DHT22;7678;50.058;8.306;2023-03-01T09:09:14;2.80;70.10
15156;DHT22;7678;50.058;8.306;2023-03-01T09:11:43;2.80;68.00
15156;DHT22;7678;50.058;8.306;2023-03-01T09:14:18;2.90;69.20
15156;DHT22;7678;50.058;8.306;2023-03-01T09:16:46;3.00;68.70
15156;DHT22;7678;50.058;8.306;2023-03-01T09:19:17;2.90;68.60
15156;DHT22;7678;50.058;8.306;2023-03-01T09:21:45;3.00;68.90
15156;DHT22;7678;50.058;8.306;2023-03-01T09:24:20;3.10;67.20
15156;DHT22;7678;50.058;8.306;2023-03-01T09:26:49;3.10;66.10
15156;DHT22;7678;50.058;8.306;2023-03-01T09:29:17;3.10;68.30
15156;DHT22;7678;50.058;8.306;2023-03-01T09:31:45;3.20;65.20
15156;DHT22;7678;50.058;8.306;2023-03-01T09:34:13;3.20;65.20
15156;DHT22;7678;50.058;8.306;2023-03-01T09:36:44;3.20;65.80
15156;DHT22;7678;50.058;8.306;2023-03-01T09:39:12;3.30;65.20
15156;DHT22;7678;50.058;8.306;2023-03-01T09:41:46;3.40;65.40
15156;DHT22;7678;50.058;8.306;2023-03-01T09:44:31;3.50;64.70
15156;DHT22;7678;50.058;8.306;2023-03-01T09:47:00;3.70;63.50
15156;DHT22;7678;50.058;8.306;2023-03-01T09:49:31;3.60;63.50
15156;DHT22;7678;50.058;8.306;2023-03-01T09:52:06;3.70;62.80
15156;DHT22;7678;50.058;8.306;2023-03-01T09:57:30;3.60;61.90
15156;DHT22;7678;50.058;8.306;2023-03-01T10:00:13;3.70;62.10
15156;DHT22;7678;50.058;8.306;2023-03-01T10:02:48;3.80;62.20
15156;DHT22;7678;50.058;8.306;2023-03-01T10:05:38;3.70;61.30
15156;DHT22;7678;50.058;8.306;2023-03-01T10:08:33;4.10;61.40
15156;DHT22;7678;50.058;8.306;2023-03-01T10:11:13;4.10;60.10
15156;DHT22;7678;50.058;8.306;2023-03-01T10:13:50;3.90;61.10
15156;DHT22;7678;50.058;8.306;2023-03-01T10:16:24;4.00;59.80
15156;DHT22;7678;50.058;8.306;2023-03-01T10:18:58;4.10;60.40
15156;DHT22;7678;50.058;8.306;2023-03-01T10:21:28;3.90;58.80
15156;DHT22;7678;50.058;8.306;2023-03-01T10:24:10;4.10;61.60
15156;DHT22;7678;50.058;8.306;2023-03-01T10:26:47;4.30;59.90
15156;DHT22;7678;50.058;8.306;2023-03-01T10:29:16;4.30;58.70
15156;DHT22;7678;50.058;8.306;2023-03-01T10:31:46;4.30;59.10
15156;DHT22;7678;50.058;8.306;2023-03-01T10:34:16;4.40;58.20
15156;DHT22;7678;50.058;8.306;2023-03-01T10:36:48;4.40;58.30
15156;DHT22;7678;50.058;8.306;2023-03-01T10:39:19;4.30;56.80
15156;DHT22;7678;50.058;8.306;2023-03-01T10:41:59;4.30;58.10
15156;DHT22;7678;50.058;8.306;2023-03-01T10:44:43;4.30;58.30
15156;DHT22;7678;50.058;8.306;2023-03-01T10:47:19;4.50;59.00
15156;DHT22;7678;50.058;8.306;2023-03-01T10:49:59;4.60;57.40
15156;DHT22;7678;50.058;8.306;2023-03-01T10:52:31;4.70;57.00
15156;DHT22;7678;50.058;8.306;2023-03-01T10:55:04;4.70;57.10
15156;DHT22;7678;50.058;8.306;2023-03-01T10:57:35;4.70;58.40
15156;DHT22;7678;50.058;8.306;2023-03-01T11:00:23;4.60;56.90
15156;DHT22;7678;50.058;8.306;2023-03-01T11:03:08;4.60;58.20
15156;DHT22;7678;50.058;8.306;2023-03-01T11:05:37;4.90;57.30
15156;DHT22;7678;50.058;8.306;2023-03-01T11:08:30;4.80;56.20
15156;DHT22;7678;50.058;8.306;2023-03-01T11:11:24;5.00;56.00
15156;DHT22;7678;50.058;8.306;2023-03-01T11:13:56;5.10;55.90
15156;DHT22;7678;50.058;8.306;2023-03-01T11:16:28;5.30;55.90
15156;DHT22;7678;50.058;8.306;2023-03-01T11:18:58;5.30;55.00
15156;DHT22;7678;50.058;8.306;2023-03-01T11:21:30;5.10;53.70
15156;DHT22;7678;50.058;8.306;2023-03-01T11:24:01;5.20;54.30
15156;DHT22;7678;50.058;8.306;2023-03-01T11:26:36;5.40;54.00
15156;DHT22;7678;50.058;8.306;2023-03-01T11:29:12;5.60;54.00
15156;DHT22;7678;50.058;8.306;2023-03-01T11:31:44;5.50;54.00
15156;DHT22;7678;50.058;8.306;2023-03-01T11:34:32;5.80;52.30
15156;DHT22;7678;50.058;8.306;2023-03-01T11:37:09;5.70;51.30
15156;DHT22;7678;50.058;8.306;2023-03-01T11:39:41;5.60;51.70
15156;DHT22;7678;50.058;8.306;2023-03-01T11:42:17;5.80;52.00
15156;DHT22;7678;50.058;8.306;2023-03-01T11:44:48;6.00;51.80
15156;DHT22;7678;50.058;8.306;2023-03-01T11:47:25;5.90;50.80
15156;DHT22;7678;50.058;8.306;2023-03-01T11:50:04;6.10;51.30
15156;DHT22;7678;50.058;8.306;2023-03-01T11:52:42;6.00;50.60
15156;DHT22;7678;50.058;8.306;2023-03-01T11:55:43;6.00;51.40
15156;DHT22;7678;50.058;8.306;2023-03-01T11:58:31;6.40;50.00
15156;DHT22;7678;50.058;8.306;2023-03-01T12:01:13;6.50;49.20
15156;DHT22;7678;50.058;8.306;2023-03-01T12:03:55;6.50;50.00
15156;DHT22;7678;50.058;8.306;2023-03-01T12:06:32;6.50;48.40
15156;DHT22;7678;50.058;8.306;2023-03-01T12:09:34;6.70;47.60
15156;DHT22;7678;50.058;8.306;2023-03-01T12:12:33;6.80;47.60
15156;DHT22;7678;50.058;8.306;2023-03-01T12:15:38;6.90;47.60
15156;DHT22;7678;50.058;8.306;2023-03-01T12:18:31;7.10;46.00
15156;DHT22;7678;50.058;8.306;2023-03-01T12:21:12;7.10;45.00
15156;DHT22;7678;50.058;8.306;2023-03-01T12:24:10;7.10;45.10
15156;DHT22;7678;50.058;8.306;2023-03-01T12:26:50;7.20;46.10
15156;DHT22;7678;50.058;8.306;2023-03-01T12:29:25;7.20;46.00
15156;DHT22;7678;50.058;8.306;2023-03-01T12:32:10;7.10;45.30
15156;DHT22;7678;50.058;8.306;2023-03-01T12:35:01;6.90;44.30
15156;DHT22;7678;50.058;8.306;2023-03-01T12:37:37;7.20;45.40
15156;DHT22;7678;50.058;8.306;2023-03-01T12:40:21;7.30;44.70
15156;DHT22;7678;50.058;8.306;2023-03-01T12:43:02;7.50;45.30
15156;DHT22;7678;50.058;8.306;2023-03-01T12:45:42;7.40;44.90
15156;DHT22;7678;50.058;8.306;2023-03-01T12:48:23;7.40;44.60
15156;DHT22;7678;50.058;8.306;2023-03-01T12:50:54;7.60;44.60
15156;DHT22;7678;50.058;8.306;2023-03-01T12:53:25;7.60;44.00
15156;DHT22;7678;50.058;8.306;2023-03-01T12:55:56;7.50;43.50
15156;DHT22;7678;50.058;8.306;2023-03-01T12:58:29;7.30;43.80
15156;DHT22;7678;50.058;8.306;2023-03-01T13:01:23;7.30;44.10
15156;DHT22;7678;50.058;8.306;2023-03-01T13:04:13;7.60;44.70
15156;DHT22;7678;50.058;8.306;2023-03-01T13:06:50;8.00;43.30
15156;DHT22;7678;50.058;8.306;2023-03-01T13:09:27;8.00;43.60
15156;DHT22;7678;50.058;8.306;2023-03-01T13:11:58;8.00;43.50
15156;DHT22;7678;50.058;8.306;2023-03-01T13:14:45;7.90;43.90
15156;DHT22;7678;50.058;8.306;2023-03-01T13:17:29;7.90;44.50
15156;DHT22;7678;50.058;8.306;2023-03-01T13:19:59;7.80;43.80
15156;DHT22;7678;50.058;8.306;2023-03-01T13:22:30;8.20;43.80
15156;DHT22;7678;50.058;8.306;2023-03-01T13:25:13;8.00;43.50
15156;DHT22;7678;50.058;8.306;2023-03-01T13:27:42;7.80;43.00
15156;DHT22;7678;50.058;8.306;2023-03-01T13:30:42;8.00;44.00
15156;DHT22;7678;50.058;8.306;2023-03-01T13:33:45;8.10;42.70
15156;DHT22;7678;50.058;8.306;2023-03-01T13:36:48;8.30;43.60
15156;DHT22;7678;50.058;8.306;2023-03-01T13:39:28;8.20;43.50
15156;DHT22;7678;50.058;8.306;2023-03-01T13:42:00;8.10;43.40
15156;DHT22;7678;50.058;8.306;2023-03-01T13:44:30;8.30;43.20
15156;DHT22;7678;50.058;8.306;2023-03-01T13:47:05;8.20;43.20
15156;DHT22;7678;50.058;8.306;2023-03-01T13:49:42;8.20;43.40
15156;DHT22;7678;50.058;8.306;2023-03-01T13:52:37;8.10;43.10
15156;DHT22;7678;50.058;8.306;2023-03-01T13:55:16;8.00;42.40
15156;DHT22;7678;50.058;8.306;2023-03-01T13:57:47;8.10;43.50
15156;DHT22;7678;50.058;8.306;2023-03-01T14:00:32;8.00;43.40
15156;DHT22;7678;50.058;8.306;2023-03-01T14:03:03;8.30;43.70
15156;DHT22;7678;50.058;8.306;2023-03-01T14:05:32;8.30;43.40
15156;DHT22;7678;50.058;8.306;2023-03-01T14:08:02;8.20;43.00
15156;DHT22;7678;50.058;8.306;2023-03-01T14:10:35;8.30;42.60
15156;DHT22;7678;50.058;8.306;2023-03-01T14:13:17;8.20;43.10
15156;DHT22;7678;50.058;8.306;2023-03-01T14:15:57;8.00;43.50
15156;DHT22;7678;50.058;8.306;2023-03-01T14:18:37;8.00;43.10
15156;DHT22;7678;50.058;8.306;2023-03-01T14:21:08;7.80;43.30
15156;DHT22;7678;50.058;8.306;2023-03-01T14:23:38;7.90;44.20
15156;DHT22;7678;50.058;8.306;2023-03-01T14:26:09;7.90;43.40
15156;DHT22;7678;50.058;8.306;2023-03-01T14:28:39;7.80;44.10
15156;DHT22;7678;50.058;8.306;2023-03-01T14:31:36;7.90;43.40
15156;DHT22;7678;50.058;8.306;2023-03-01T14:34:22;7.90;44.00
15156;DHT22;7678;50.058;8.306;2023-03-01T14:36:51;7.80;44.90
15156;DHT22;7678;50.058;8.306;2023-03-01T14:39:25;7.90;44.10
15156;DHT22;7678;50.058;8.306;2023-03-01T14:41:53;8.00;44.40
15156;DHT22;7678;50.058;8.306;2023-03-01T14:44:27;7.90;43.70
15156;DHT22;7678;50.058;8.306;2023-03-01T14:46:56;7.80;43.30
15156;DHT22;7678;50.058;8.306;2023-03-01T14:49:28;7.70;43.70
15156;DHT22;7678;50.058;8.306;2023-03-01T14:52:07;7.70;43.50
15156;DHT22;7678;50.058;8.306;2023-03-01T14:54:54;7.70;43.00
15156;DHT22;7678;50.058;8.306;2023-03-01T14:57:23;7.80;43.30
15156;DHT22;7678;50.058;8.306;2023-03-01T14:59:54;7.70;43.30
15156;DHT22;7678;50.058;8.306;2023-03-01T15:02:24;7.70;43.40
15156;DHT22;7678;50.058;8.306;2023-03-01T15:04:55;7.80;43.50
15156;DHT22;7678;50.058;8.306;2023-03-01T15:07:27;7.80;42.80
15156;DHT22;7678;50.058;8.306;2023-03-01T15:09:59;7.90;43.10
15156;DHT22;7678;50.058;8.306;2023-03-01T15:12:40;7.90;43.60
15156;DHT22;7678;50.058;8.306;2023-03-01T15:15:31;7.80;43.80
15156;DHT22;7678;50.058;8.306;2023-03-01T15:18:02;7.70;44.00
15156;DHT22;7678;50.058;8.306;2023-03-01T15:20:31;7.50;44.30
15156;DHT22;7678;50.058;8.306;2023-03-01T15:23:03;7.60;44.20
15156;DHT22;7678;50.058;8.306;2023-03-01T15:25:33;7.60;44.00
15156;DHT22;7678;50.058;8.306;2023-03-01T15:28:03;7.50;43.70
15156;DHT22;7678;50.058;8.306;2023-03-01T15:30:33;7.50;43.30
15156;DHT22;7678;50.058;8.306;2023-03-01T15:33:19;7.50;43.70
15156;DHT22;7678;50.058;8.306;2023-03-01T15:35:49;7.50;43.20
15156;DHT22;7678;50.058;8.306;2023-03-01T15:38:33;7.40;43.30
15156;DHT22;7678;50.058;8.306;2023-03-01T15:41:22;7.50;43.80
15156;DHT22;7678;50.058;8.306;2023-03-01T15:43:51;7.40;43.70
15156;DHT22;7678;50.058;8.306;2023-03-01T15:46:24;7.40;43.90
15156;DHT22;7678;50.058;8.306;2023-03-01T15:48:54;7.50;44.10
15156;DHT22;7678;50.058;8.306;2023-03-01T15:51:29;7.40;43.80
15156;DHT22;7678;50.058;8.306;2023-03-01T15:53:59;7.40;43.30
15156;DHT22;7678;50.058;8.306;2023-03-01T15:56:30;7.20;43.70
15156;DHT22;7678;50.058;8.306;2023-03-01T15:59:00;7.20;44.30
15156;DHT22;7678;50.058;8.306;2023-03-01T16:01:31;7.20;44.10
15156;DHT22;7678;50.058;8.306;2023-03-01T16:04:01;7.20;44.90
15156;DHT22;7678;50.058;8.306;2023-03-01T16:06:29;7.20;44.80
15156;DHT22;7678;50.058;8.306;2023-03-01T16:08:57;7.00;44.40
15156;DHT22;7678;50.058;8.306;2023-03-01T16:11:25;6.90;45.10
15156;DHT22;7678;50.058;8.306;2023-03-01T16:13:54;6.90;45.70
15156;DHT22;7678;50.058;8.306;2023-03-01T16:16:23;6.90;45.80
15156;DHT22;7678;50.058;8.306;2023-03-01T16:18:51;6.90;46.00
15156;DHT22;7678;50.058;8.306;2023-03-01T16:21:23;6.90;45.80
15156;DHT22;7678;50.058;8.306;2023-03-01T16:23:53;6.80;46.00
15156;DHT22;7678;50.058;8.306;2023-03-01T16:26:28;6.70;45.90
15156;DHT22;7678;50.058;8.306;2023-03-01T16:28:59;6.70;45.80
15156;DHT22;7678;50.058;8.306;2023-03-01T16:31:27;6.50;46.50
15156;DHT22;7678;50.058;8.306;2023-03-01T16:33:57;6.50;47.00
15156;DHT22;7678;50.058;8.306;2023-03-01T16:36:27;6.40;46.50